createdAt,value
2018-09-29T00:00:02.650Z,13.75
2018-09-29T00:01:02.514Z,13.75
2018-09-29T00:02:02.931Z,13.75
2018-09-29T00:03:02.942Z,13.81
2018-09-29T00:04:02.637Z,13.75
2018-09-29T00:05:02.623Z,13.75
2018-09-29T00:06:02.623Z,13.75
2018-09-29T00:07:02.760Z,13.75
2018-09-29T00:08:02.913Z,13.75
2018-09-29T00:09:02.582Z,13.81
2018-09-29T00:10:02.967Z,13.75
2018-09-29T00:11:02.519Z,13.81
2018-09-29T00:12:02.522Z,13.62
2018-09-29T00:13:02.492Z,13.69
2018-09-29T00:14:02.582Z,13.69
2018-09-29T00:15:03.342Z,13.69
2018-09-29T00:16:02.539Z,13.62
2018-09-29T00:17:02.616Z,13.62
2018-09-29T00:18:02.618Z,13.56
2018-09-29T00:19:02.539Z,13.62
2018-09-29T00:20:02.486Z,13.62
2018-09-29T00:21:02.476Z,13.62
2018-09-29T00:22:02.480Z,13.62
2018-09-29T00:23:02.449Z,13.62
2018-09-29T00:24:02.563Z,13.62
2018-09-29T00:25:02.930Z,13.56
2018-09-29T00:26:02.519Z,13.56
2018-09-29T00:27:02.632Z,13.5
2018-09-29T00:28:02.557Z,13.5
2018-09-29T00:29:02.649Z,13.38
2018-09-29T00:30:02.484Z,13.38
2018-09-29T00:31:02.543Z,13.25
2018-09-29T00:32:02.590Z,13.25
2018-09-29T00:33:02.487Z,13.19
2018-09-29T00:34:02.912Z,13.13
2018-09-29T00:35:02.488Z,13.19
2018-09-29T00:36:02.460Z,13.19
2018-09-29T00:37:02.460Z,13.19
2018-09-29T00:38:02.591Z,13.25
2018-09-29T00:39:02.452Z,13.25
2018-09-29T00:40:02.513Z,13.25
2018-09-29T00:41:02.725Z,13.19
2018-09-29T00:42:02.457Z,13.19
2018-09-29T00:43:02.450Z,13.19
2018-09-29T00:44:02.448Z,13.19
2018-09-29T00:45:02.716Z,13.19
2018-09-29T00:46:02.491Z,13.25
2018-09-29T00:47:02.614Z,13.25
2018-09-29T00:48:02.636Z,13.13
2018-09-29T00:49:02.490Z,13.13
2018-09-29T00:50:02.511Z,13.13
2018-09-29T00:51:02.561Z,13.13
2018-09-29T00:52:02.716Z,13.06
2018-09-29T00:53:02.443Z,13
2018-09-29T00:54:02.409Z,12.94
2018-09-29T00:55:02.486Z,12.88
2018-09-29T00:56:02.476Z,12.88
2018-09-29T00:57:02.533Z,12.88
2018-09-29T00:58:02.446Z,12.75
2018-09-29T00:59:02.516Z,12.69
2018-09-29T01:00:02.405Z,12.69
2018-09-29T01:01:02.590Z,12.75
2018-09-29T01:02:02.469Z,12.69
2018-09-29T01:03:02.546Z,12.75
2018-09-29T01:04:02.844Z,12.75
2018-09-29T01:05:02.661Z,12.75
2018-09-29T01:06:02.478Z,12.75
2018-09-29T01:07:02.441Z,12.81
2018-09-29T01:08:02.387Z,12.63
2018-09-29T01:09:02.413Z,12.5
2018-09-29T01:10:02.431Z,12.37
2018-09-29T01:11:02.407Z,12.19
2018-09-29T01:12:02.409Z,12.25
2018-09-29T01:13:02.411Z,12.25
2018-09-29T01:14:02.418Z,12.25
2018-09-29T01:15:02.390Z,12.25
2018-09-29T01:16:02.404Z,12.13
2018-09-29T01:17:02.507Z,12.06
2018-09-29T01:18:02.673Z,11.94
2018-09-29T01:19:02.422Z,12
2018-09-29T01:20:02.414Z,12
2018-09-29T01:21:02.389Z,12.06
2018-09-29T01:22:02.385Z,12.06
2018-09-29T01:23:02.403Z,12.06
2018-09-29T01:24:02.387Z,12.06
2018-09-29T01:25:02.380Z,11.94
2018-09-29T01:26:02.365Z,11.94
2018-09-29T01:27:02.369Z,11.88
2018-09-29T01:28:02.410Z,11.88
2018-09-29T01:29:02.416Z,11.81
2018-09-29T01:30:02.430Z,11.88
2018-09-29T01:31:02.512Z,11.81
2018-09-29T01:32:02.619Z,11.81
2018-09-29T01:33:02.574Z,11.81
2018-09-29T01:34:02.531Z,11.81
2018-09-29T01:35:02.505Z,11.88
2018-09-29T01:36:02.495Z,11.94
2018-09-29T01:37:02.342Z,11.94
2018-09-29T01:38:02.886Z,11.94
2018-09-29T01:39:02.407Z,11.94
2018-09-29T01:40:02.444Z,12
2018-09-29T01:41:02.455Z,12
2018-09-29T01:42:02.578Z,12.06
2018-09-29T01:43:02.342Z,12.13
2018-09-29T01:44:02.351Z,12.13
2018-09-29T01:45:02.502Z,12.06
2018-09-29T01:46:02.403Z,12.06
2018-09-29T01:47:02.360Z,12
2018-09-29T01:48:02.445Z,11.88
2018-09-29T01:49:02.801Z,11.88
2018-09-29T01:50:02.521Z,11.88
2018-09-29T01:51:02.654Z,11.88
2018-09-29T01:52:02.343Z,11.88
2018-09-29T01:53:02.764Z,11.81
2018-09-29T01:54:02.406Z,11.75
2018-09-29T01:55:02.569Z,11.75
2018-09-29T01:56:02.581Z,11.63
2018-09-29T01:57:02.620Z,11.56
2018-09-29T01:58:02.515Z,11.5
2018-09-29T01:59:02.371Z,11.5
2018-09-29T02:00:02.457Z,11.56
2018-09-29T02:01:02.448Z,11.56
2018-09-29T02:02:02.417Z,11.56
2018-09-29T02:03:02.513Z,11.56
2018-09-29T02:04:02.365Z,11.56
2018-09-29T02:05:02.447Z,11.63
2018-09-29T02:06:02.329Z,11.63
2018-09-29T02:07:02.540Z,11.69
2018-09-29T02:08:03.250Z,11.69
2018-09-29T02:09:02.350Z,11.69
2018-09-29T02:10:02.491Z,11.69
2018-09-29T02:11:02.423Z,11.63
2018-09-29T02:12:02.415Z,11.63
2018-09-29T02:13:02.330Z,11.56
2018-09-29T02:14:02.401Z,11.44
2018-09-29T02:15:02.660Z,11.38
2018-09-29T02:16:02.441Z,11.38
2018-09-29T02:17:02.406Z,11.19
2018-09-29T02:18:02.296Z,11.19
2018-09-29T02:19:02.740Z,11.25
2018-09-29T02:20:02.309Z,11.19
2018-09-29T02:21:02.757Z,11.19
2018-09-29T02:22:02.377Z,11.25
2018-09-29T02:23:02.277Z,11.25
2018-09-29T02:24:02.302Z,11.25
2018-09-29T02:25:02.472Z,11.19
2018-09-29T02:26:02.302Z,11.19
2018-09-29T02:27:02.323Z,11.19
2018-09-29T02:28:02.422Z,11.12
2018-09-29T02:29:03.221Z,11.19
2018-09-29T02:30:02.392Z,11.19
2018-09-29T02:31:02.284Z,11.12
2018-09-29T02:32:02.293Z,11.19
2018-09-29T02:33:02.530Z,11.19
2018-09-29T02:34:02.273Z,11.12
2018-09-29T02:35:02.329Z,11.12
2018-09-29T02:36:02.281Z,11.12
2018-09-29T02:37:02.407Z,11.19
2018-09-29T02:38:02.288Z,11.12
2018-09-29T02:39:02.258Z,11.19
2018-09-29T02:40:02.266Z,11.25
2018-09-29T02:41:02.260Z,11.19
2018-09-29T02:42:02.236Z,11.25
2018-09-29T02:43:04.708Z,11.25
2018-09-29T02:44:02.313Z,11.25
2018-09-29T02:45:02.281Z,11.12
2018-09-29T02:46:02.268Z,11.12
2018-09-29T02:47:02.275Z,11.19
2018-09-29T02:48:02.330Z,11.12
2018-09-29T02:49:02.633Z,11.06
2018-09-29T02:50:02.408Z,11.12
2018-09-29T02:51:02.357Z,11.12
2018-09-29T02:52:02.337Z,11.06
2018-09-29T02:53:02.291Z,11.06
2018-09-29T02:54:02.264Z,11.06
2018-09-29T02:55:02.549Z,11
2018-09-29T02:56:02.422Z,11.06
2018-09-29T02:57:02.275Z,11
2018-09-29T02:58:02.230Z,11
2018-09-29T02:59:02.221Z,10.94
2018-09-29T03:00:02.269Z,10.94
2018-09-29T03:01:02.285Z,10.81
2018-09-29T03:02:02.244Z,10.81
2018-09-29T03:03:02.312Z,10.81
2018-09-29T03:04:02.443Z,10.81
2018-09-29T03:05:02.786Z,10.88
2018-09-29T03:06:02.463Z,10.81
2018-09-29T03:07:02.636Z,10.88
2018-09-29T03:08:02.678Z,10.81
2018-09-29T03:09:02.496Z,10.75
2018-09-29T03:10:02.211Z,10.75
2018-09-29T03:11:02.278Z,10.81
2018-09-29T03:12:02.225Z,10.81
2018-09-29T03:13:02.187Z,10.81
2018-09-29T03:14:02.327Z,10.81
2018-09-29T03:15:02.360Z,10.88
2018-09-29T03:16:02.206Z,10.88
2018-09-29T03:17:02.342Z,10.81
2018-09-29T03:18:02.292Z,10.88
2018-09-29T03:19:02.680Z,10.88
2018-09-29T03:20:02.484Z,10.81
2018-09-29T03:21:02.268Z,10.81
2018-09-29T03:22:02.219Z,10.81
2018-09-29T03:23:02.831Z,10.88
2018-09-29T03:24:02.205Z,10.94
2018-09-29T03:25:02.327Z,10.94
2018-09-29T03:26:02.624Z,10.88
2018-09-29T03:27:02.494Z,10.88
2018-09-29T03:28:02.298Z,10.81
2018-09-29T03:29:02.495Z,10.75
2018-09-29T03:30:02.252Z,10.88
2018-09-29T03:31:02.246Z,10.88
2018-09-29T03:32:02.299Z,10.94
2018-09-29T03:33:02.229Z,10.88
2018-09-29T03:34:02.449Z,10.88
2018-09-29T03:35:02.221Z,10.88
2018-09-29T03:36:02.360Z,10.81
2018-09-29T03:37:02.757Z,10.81
2018-09-29T03:38:02.243Z,10.81
2018-09-29T03:39:02.312Z,10.81
2018-09-29T03:40:02.257Z,10.81
2018-09-29T03:41:02.234Z,10.88
2018-09-29T03:42:02.267Z,10.81
2018-09-29T03:43:02.410Z,10.81
2018-09-29T03:44:02.749Z,10.88
2018-09-29T03:45:02.292Z,10.88
2018-09-29T03:46:02.218Z,10.94
2018-09-29T03:47:02.215Z,10.94
2018-09-29T03:48:02.527Z,10.94
2018-09-29T03:49:02.459Z,10.88
2018-09-29T03:50:02.329Z,10.81
2018-09-29T03:51:02.581Z,10.75
2018-09-29T03:52:02.171Z,10.75
2018-09-29T03:53:02.234Z,10.81
2018-09-29T03:54:02.235Z,10.75
2018-09-29T03:55:02.260Z,10.81
2018-09-29T03:56:02.186Z,10.88
2018-09-29T03:57:02.194Z,10.88
2018-09-29T03:58:02.181Z,10.81
2018-09-29T03:59:02.217Z,10.88
2018-09-29T04:00:02.204Z,10.75
2018-09-29T04:01:02.198Z,10.69
2018-09-29T04:02:02.226Z,10.75
2018-09-29T04:03:02.168Z,10.75
2018-09-29T04:04:02.172Z,10.75
2018-09-29T04:05:02.230Z,10.69
2018-09-29T04:06:02.234Z,10.75
2018-09-29T04:07:02.177Z,10.75
2018-09-29T04:08:02.155Z,10.75
2018-09-29T04:09:02.213Z,10.75
2018-09-29T04:10:02.307Z,10.75
2018-09-29T04:11:02.188Z,10.75
2018-09-29T04:12:02.162Z,10.63
2018-09-29T04:13:02.215Z,10.63
2018-09-29T04:14:02.555Z,10.56
2018-09-29T04:15:02.431Z,10.63
2018-09-29T04:16:02.131Z,10.63
2018-09-29T04:17:02.216Z,10.63
2018-09-29T04:18:02.341Z,10.63
2018-09-29T04:19:02.104Z,10.56
2018-09-29T04:20:02.473Z,10.63
2018-09-29T04:21:02.159Z,10.56
2018-09-29T04:22:02.160Z,10.56
2018-09-29T04:23:02.369Z,10.5
2018-09-29T04:24:02.178Z,10.44
2018-09-29T04:25:02.511Z,10.5
2018-09-29T04:26:02.267Z,10.5
2018-09-29T04:27:02.244Z,10.44
2018-09-29T04:28:02.245Z,10.38
2018-09-29T04:29:02.191Z,10.5
2018-09-29T04:30:02.210Z,10.44
2018-09-29T04:31:02.164Z,10.38
2018-09-29T04:32:02.882Z,10.31
2018-09-29T04:33:02.346Z,10.25
2018-09-29T04:34:02.339Z,10.31
2018-09-29T04:35:02.264Z,10.31
2018-09-29T04:36:02.233Z,10.31
2018-09-29T04:37:02.145Z,10.38
2018-09-29T04:38:02.116Z,10.44
2018-09-29T04:39:02.157Z,10.38
2018-09-29T04:40:02.413Z,10.38
2018-09-29T04:41:02.339Z,10.31
2018-09-29T04:42:02.220Z,10.38
2018-09-29T04:43:02.768Z,10.44
2018-09-29T04:44:02.218Z,10.38
2018-09-29T04:45:02.336Z,10.44
2018-09-29T04:46:02.149Z,10.38
2018-09-29T04:47:02.194Z,10.44
2018-09-29T04:48:02.076Z,10.44
2018-09-29T04:49:02.584Z,10.44
2018-09-29T04:50:02.208Z,10.44
2018-09-29T04:51:02.212Z,10.44
2018-09-29T04:52:02.095Z,10.38
2018-09-29T04:53:02.153Z,10.44
2018-09-29T04:54:02.303Z,10.44
2018-09-29T04:55:02.271Z,10.44
2018-09-29T04:56:02.117Z,10.44
2018-09-29T04:57:02.247Z,10.5
2018-09-29T04:58:02.262Z,10.5
2018-09-29T04:59:02.167Z,10.5
2018-09-29T05:00:02.279Z,10.38
2018-09-29T05:01:02.258Z,10.31
2018-09-29T05:02:02.219Z,10.31
2018-09-29T05:03:02.169Z,10.31
2018-09-29T05:04:02.304Z,10.31
2018-09-29T05:05:02.179Z,10.38
2018-09-29T05:06:02.422Z,10.38
2018-09-29T05:07:02.151Z,10.19
2018-09-29T05:08:02.118Z,10.31
2018-09-29T05:09:02.246Z,10.31
2018-09-29T05:10:02.116Z,10.38
2018-09-29T05:11:02.156Z,10.44
2018-09-29T05:12:02.095Z,10.44
2018-09-29T05:13:02.135Z,10.44
2018-09-29T05:14:02.818Z,10.5
2018-09-29T05:15:02.178Z,10.5
2018-09-29T05:16:02.114Z,10.5
2018-09-29T05:17:02.109Z,10.56
2018-09-29T05:18:02.137Z,10.56
2018-09-29T05:19:02.073Z,10.56
2018-09-29T05:20:02.232Z,10.5
2018-09-29T05:21:02.131Z,10.56
2018-09-29T05:22:02.055Z,10.56
2018-09-29T05:23:02.307Z,10.56
2018-09-29T05:24:02.114Z,10.56
2018-09-29T05:25:02.134Z,10.56
2018-09-29T05:26:02.066Z,10.56
2018-09-29T05:27:02.232Z,10.56
2018-09-29T05:28:02.108Z,10.56
2018-09-29T05:29:02.354Z,10.56
2018-09-29T05:30:02.103Z,10.56
2018-09-29T05:31:02.743Z,10.56
2018-09-29T05:32:02.095Z,10.56
2018-09-29T05:33:02.062Z,10.56
2018-09-29T05:34:02.113Z,10.5
2018-09-29T05:35:02.052Z,10.5
2018-09-29T05:36:02.389Z,10.44
2018-09-29T05:37:02.439Z,10.5
2018-09-29T05:38:02.156Z,10.44
2018-09-29T05:39:02.413Z,10.44
2018-09-29T05:40:02.327Z,10.44
2018-09-29T05:41:02.426Z,10.38
2018-09-29T05:42:02.052Z,10.38
2018-09-29T05:43:02.013Z,10.38
2018-09-29T05:44:02.306Z,10.38
2018-09-29T05:45:02.436Z,10.38
2018-09-29T05:46:02.085Z,10.31
2018-09-29T05:47:02.258Z,10.25
2018-09-29T05:48:02.060Z,10.25
2018-09-29T05:49:02.116Z,10.19
2018-09-29T05:50:02.134Z,10.19
2018-09-29T05:51:02.180Z,10.25
2018-09-29T05:52:02.009Z,10.19
2018-09-29T05:53:02.275Z,10.31
2018-09-29T05:54:03.110Z,10.25
2018-09-29T05:55:02.080Z,10.25
2018-09-29T05:56:02.135Z,10.31
2018-09-29T05:57:02.007Z,10.31
2018-09-29T05:58:02.261Z,10.31
2018-09-29T05:59:02.082Z,10.31
2018-09-29T06:00:02.495Z,10.31
2018-09-29T06:01:02.233Z,10.25
2018-09-29T06:02:02.099Z,10.25
2018-09-29T06:03:02.408Z,10.25
2018-09-29T06:04:02.281Z,10.25
2018-09-29T06:05:02.851Z,10.25
2018-09-29T06:06:02.277Z,10.25
2018-09-29T06:07:02.697Z,10.31
2018-09-29T06:08:02.318Z,10.31
2018-09-29T06:09:02.165Z,10.31
2018-09-29T06:10:02.375Z,10.25
2018-09-29T06:11:02.131Z,10.31
2018-09-29T06:12:02.151Z,10.31
2018-09-29T06:13:02.518Z,10.31
2018-09-29T06:14:02.129Z,10.31
2018-09-29T06:15:01.990Z,10.19
2018-09-29T06:16:02.209Z,10.19
2018-09-29T06:17:02.341Z,10.19
2018-09-29T06:18:01.979Z,10.31
2018-09-29T06:19:02.183Z,10.25
2018-09-29T06:20:02.349Z,10.25
2018-09-29T06:21:03.088Z,10.13
2018-09-29T06:22:02.227Z,10.19
2018-09-29T06:23:02.082Z,10.19
2018-09-29T06:24:02.266Z,10.13
2018-09-29T06:25:02.003Z,10
2018-09-29T06:26:02.200Z,10
2018-09-29T06:27:02.206Z,9.94
2018-09-29T06:28:02.773Z,10
2018-09-29T06:29:02.247Z,10.06
2018-09-29T06:30:02.183Z,10.06
2018-09-29T06:31:02.179Z,10.13
2018-09-29T06:32:02.346Z,10.19
2018-09-29T06:33:02.017Z,10.25
2018-09-29T06:34:02.213Z,10.31
2018-09-29T06:35:02.025Z,10.31
2018-09-29T06:36:02.304Z,10.25
2018-09-29T06:37:02.227Z,10.25
2018-09-29T06:38:01.929Z,10.25
2018-09-29T06:39:02.362Z,10.19
2018-09-29T06:40:01.945Z,10.31
2018-09-29T06:41:02.142Z,10.38
2018-09-29T06:42:01.943Z,10.38
2018-09-29T06:43:02.320Z,10.31
2018-09-29T06:44:01.927Z,10.25
2018-09-29T06:45:01.954Z,10.25
2018-09-29T06:46:01.924Z,10.25
2018-09-29T06:47:01.936Z,10.31
2018-09-29T06:48:02.272Z,10.31
2018-09-29T06:49:01.900Z,10.31
2018-09-29T06:50:01.981Z,10.38
2018-09-29T06:51:02.105Z,10.44
2018-09-29T06:52:01.929Z,10.44
2018-09-29T06:53:01.910Z,10.31
2018-09-29T06:54:02.188Z,10.31
2018-09-29T06:55:01.986Z,10.31
2018-09-29T06:56:01.934Z,10.38
2018-09-29T06:57:01.918Z,10.44
2018-09-29T06:58:05.382Z,10.44
2018-09-29T06:59:02.195Z,10.5
2018-09-29T07:00:01.898Z,10.44
2018-09-29T07:01:02.050Z,10.44
2018-09-29T07:02:01.904Z,10.38
2018-09-29T07:03:02.564Z,10.38
2018-09-29T07:04:02.071Z,10.44
2018-09-29T07:05:02.430Z,10.5
2018-09-29T07:06:01.964Z,10.56
2018-09-29T07:07:01.951Z,10.56
2018-09-29T07:08:02.053Z,10.63
2018-09-29T07:09:01.914Z,10.63
2018-09-29T07:10:01.880Z,10.63
2018-09-29T07:11:02.000Z,10.69
2018-09-29T07:12:01.929Z,10.69
2018-09-29T07:13:02.851Z,10.75
2018-09-29T07:14:02.047Z,10.63
2018-09-29T07:15:01.957Z,10.69
2018-09-29T07:16:01.982Z,10.75
2018-09-29T07:17:01.868Z,10.81
2018-09-29T07:18:01.953Z,10.81
2018-09-29T07:19:01.985Z,10.88
2018-09-29T07:20:02.031Z,10.81
2018-09-29T07:21:01.895Z,10.88
2018-09-29T07:22:02.201Z,10.88
2018-09-29T07:23:01.877Z,10.81
2018-09-29T07:24:01.891Z,10.88
2018-09-29T07:25:02.074Z,10.94
2018-09-29T07:26:02.116Z,10.94
2018-09-29T07:27:01.939Z,10.94
2018-09-29T07:28:01.882Z,11
2018-09-29T07:29:02.129Z,11
2018-09-29T07:30:01.952Z,11.06
2018-09-29T07:31:02.138Z,11.12
2018-09-29T07:32:01.978Z,11.12
2018-09-29T07:33:03.482Z,11.12
2018-09-29T07:34:03.174Z,11.19
2018-09-29T07:35:01.867Z,11.19
2018-09-29T07:36:06.240Z,11.19
2018-09-29T07:37:02.103Z,11.19
2018-09-29T07:38:01.859Z,11.25
2018-09-29T07:39:02.479Z,11.25
2018-09-29T07:40:01.902Z,11.25
2018-09-29T07:41:02.127Z,11.31
2018-09-29T07:42:02.032Z,11.31
2018-09-29T07:43:01.939Z,11.31
2018-09-29T07:44:02.230Z,11.38
2018-09-29T07:45:02.113Z,11.44
2018-09-29T07:46:01.900Z,11.38
2018-09-29T07:47:01.853Z,11.44
2018-09-29T07:48:01.829Z,11.44
2018-09-29T07:49:02.405Z,11.5
2018-09-29T07:50:01.875Z,11.5
2018-09-29T07:51:01.849Z,11.63
2018-09-29T07:52:01.858Z,11.63
2018-09-29T07:53:01.826Z,11.63
2018-09-29T07:54:02.058Z,11.75
2018-09-29T07:55:02.148Z,11.75
2018-09-29T07:56:02.259Z,11.75
2018-09-29T07:57:01.852Z,11.81
2018-09-29T07:58:02.060Z,11.88
2018-09-29T07:59:01.866Z,11.88
2018-09-29T08:00:02.071Z,11.94
2018-09-29T08:01:02.023Z,12
2018-09-29T08:02:01.873Z,11.94
2018-09-29T08:03:01.832Z,12
2018-09-29T08:04:01.812Z,12
2018-09-29T08:05:01.778Z,12.06
2018-09-29T08:06:01.784Z,12.06
2018-09-29T08:07:01.827Z,12.13
2018-09-29T08:08:01.827Z,12.06
2018-09-29T08:09:01.857Z,12.13
2018-09-29T08:10:01.841Z,12.19
2018-09-29T08:11:01.813Z,12.13
2018-09-29T08:12:01.868Z,12.19
2018-09-29T08:13:01.782Z,12.13
2018-09-29T08:14:01.787Z,12.19
2018-09-29T08:15:01.786Z,12.19
2018-09-29T08:16:01.811Z,12.19
2018-09-29T08:17:01.810Z,12.13
2018-09-29T08:18:01.802Z,12.13
2018-09-29T08:19:01.794Z,12.19
2018-09-29T08:20:01.871Z,12.19
2018-09-29T08:21:01.785Z,12.19
2018-09-29T08:22:01.779Z,12.25
2018-09-29T08:23:01.786Z,12.31
2018-09-29T08:24:02.289Z,12.31
2018-09-29T08:25:01.798Z,12.37
2018-09-29T08:26:01.820Z,12.44
2018-09-29T08:27:02.203Z,12.44
2018-09-29T08:28:01.758Z,12.5
2018-09-29T08:29:01.769Z,12.5
2018-09-29T08:30:01.791Z,12.5
2018-09-29T08:31:01.984Z,12.56
2018-09-29T08:32:01.913Z,12.56
2018-09-29T08:33:02.061Z,12.63
2018-09-29T08:34:01.872Z,12.63
2018-09-29T08:35:01.775Z,12.75
2018-09-29T08:36:01.846Z,12.75
2018-09-29T08:37:01.925Z,12.75
2018-09-29T08:38:01.851Z,12.81
2018-09-29T08:39:01.771Z,12.75
2018-09-29T08:40:01.771Z,12.75
2018-09-29T08:41:01.915Z,12.75
2018-09-29T08:42:01.766Z,12.81
2018-09-29T08:43:01.785Z,12.81
2018-09-29T08:44:01.833Z,12.75
2018-09-29T08:45:02.112Z,12.69
2018-09-29T08:46:01.888Z,12.75
2018-09-29T08:47:01.776Z,12.81
2018-09-29T08:48:01.769Z,12.81
2018-09-29T08:49:01.820Z,12.81
2018-09-29T08:50:01.947Z,12.81
2018-09-29T08:51:02.163Z,12.81
2018-09-29T08:52:02.141Z,12.88
2018-09-29T08:53:02.123Z,12.81
2018-09-29T08:54:01.849Z,12.88
2018-09-29T08:55:01.952Z,12.94
2018-09-29T08:56:02.403Z,13.06
2018-09-29T08:57:01.772Z,13
2018-09-29T08:58:01.832Z,13.06
2018-09-29T08:59:01.890Z,13.13
2018-09-29T09:00:01.850Z,13.13
2018-09-29T09:01:01.749Z,13.19
2018-09-29T09:02:01.877Z,13.25
2018-09-29T09:03:01.882Z,13.25
2018-09-29T09:04:02.881Z,13.25
2018-09-29T09:05:01.711Z,13.31
2018-09-29T09:06:01.784Z,13.31
2018-09-29T09:07:01.699Z,13.38
2018-09-29T09:08:01.738Z,13.44
2018-09-29T09:09:01.781Z,13.5
2018-09-29T09:10:01.823Z,13.56
2018-09-29T09:11:02.043Z,13.62
2018-09-29T09:12:01.732Z,13.62
2018-09-29T09:13:01.768Z,13.62
2018-09-29T09:14:02.089Z,13.62
2018-09-29T09:15:01.831Z,13.62
2018-09-29T09:16:01.855Z,13.62
2018-09-29T09:17:03.017Z,13.69
2018-09-29T09:18:01.746Z,13.75
2018-09-29T09:19:01.701Z,13.69
2018-09-29T09:20:01.709Z,13.69
2018-09-29T09:21:01.860Z,13.75
2018-09-29T09:22:01.784Z,13.75
2018-09-29T09:23:02.167Z,13.69
2018-09-29T09:24:01.951Z,13.69
2018-09-29T09:25:01.823Z,13.69
2018-09-29T09:26:01.684Z,13.69
2018-09-29T09:27:01.808Z,13.69
2018-09-29T09:28:01.922Z,13.75
2018-09-29T09:29:01.801Z,13.75
2018-09-29T09:30:01.959Z,13.69
2018-09-29T09:31:01.703Z,13.69
2018-09-29T09:32:01.845Z,13.69
2018-09-29T09:33:01.742Z,13.69
2018-09-29T09:34:01.698Z,13.75
2018-09-29T09:35:01.737Z,13.75
2018-09-29T09:36:01.692Z,13.81
2018-09-29T09:37:01.793Z,13.81
2018-09-29T09:38:01.736Z,13.88
2018-09-29T09:39:01.752Z,13.88
2018-09-29T09:40:01.721Z,13.81
2018-09-29T09:41:01.729Z,13.94
2018-09-29T09:42:01.726Z,13.88
2018-09-29T09:43:01.744Z,13.94
2018-09-29T09:44:01.670Z,13.94
2018-09-29T09:45:01.707Z,13.94
2018-09-29T09:46:01.651Z,13.94
2018-09-29T09:47:01.735Z,14
2018-09-29T09:48:01.732Z,14
2018-09-29T09:50:02.084Z,14.06
2018-09-29T09:51:01.771Z,14
2018-09-29T09:52:01.673Z,14
2018-09-29T09:53:01.682Z,14.06
2018-09-29T09:54:01.734Z,14.06
2018-09-29T09:55:01.784Z,14.19
2018-09-29T09:56:02.297Z,14.19
2018-09-29T09:57:01.700Z,14.25
2018-09-29T09:58:01.748Z,14.31
2018-09-29T09:59:03.287Z,14.38
2018-09-29T10:00:03.936Z,14.38
2018-09-29T10:01:01.645Z,14.38
2018-09-29T10:02:01.664Z,14.31
2018-09-29T10:03:01.939Z,14.31
2018-09-29T10:04:01.739Z,14.25
2018-09-29T10:05:01.695Z,14.31
2018-09-29T10:06:01.745Z,14.25
2018-09-29T10:07:01.658Z,14.25
2018-09-29T10:08:01.877Z,14.25
2018-09-29T10:09:01.763Z,14.25
2018-09-29T10:10:01.719Z,14.25
2018-09-29T10:11:01.722Z,14.31
2018-09-29T10:12:01.685Z,14.38
2018-09-29T10:13:01.750Z,14.44
2018-09-29T10:14:02.289Z,14.56
2018-09-29T10:15:01.659Z,14.5
2018-09-29T10:16:01.709Z,14.5
2018-09-29T10:17:01.778Z,14.63
2018-09-29T10:18:01.733Z,14.63
2018-09-29T10:19:01.657Z,14.63
2018-09-29T10:20:01.842Z,14.69
2018-09-29T10:21:01.654Z,14.75
2018-09-29T10:22:01.709Z,14.81
2018-09-29T10:23:01.792Z,14.75
2018-09-29T10:24:01.668Z,14.81
2018-09-29T10:25:02.735Z,14.81
2018-09-29T10:26:01.906Z,14.87
2018-09-29T10:27:01.732Z,14.87
2018-09-29T10:28:01.662Z,14.94
2018-09-29T10:29:01.684Z,14.94
2018-09-29T10:30:01.658Z,15
2018-09-29T10:31:01.674Z,15
2018-09-29T10:32:01.811Z,14.87
2018-09-29T10:33:01.719Z,14.87
2018-09-29T10:34:01.731Z,14.87
2018-09-29T10:35:01.822Z,14.87
2018-09-29T10:36:01.610Z,14.94
2018-09-29T10:37:01.638Z,15.06
2018-09-29T10:38:01.632Z,15.13
2018-09-29T10:39:01.826Z,15.13
2018-09-29T10:40:01.912Z,15.19
2018-09-29T10:41:01.790Z,15.25
2018-09-29T10:42:01.607Z,15.31
2018-09-29T10:43:01.801Z,15.31
2018-09-29T10:44:02.002Z,15.31
2018-09-29T10:45:01.723Z,15.38
2018-09-29T10:46:02.038Z,15.44
2018-09-29T10:47:01.718Z,15.5
2018-09-29T10:48:02.070Z,15.5
2018-09-29T10:49:01.655Z,15.5
2018-09-29T10:50:01.825Z,15.38
2018-09-29T10:51:01.704Z,15.44
2018-09-29T10:52:01.779Z,15.5
2018-09-29T10:53:02.723Z,15.56
2018-09-29T10:54:01.671Z,15.56
2018-09-29T10:55:01.662Z,15.56
2018-09-29T10:56:01.588Z,15.5
2018-09-29T10:57:01.627Z,15.5
2018-09-29T10:58:01.630Z,15.56
2018-09-29T10:59:01.911Z,15.63
2018-09-29T11:00:01.715Z,15.63
2018-09-29T11:01:01.606Z,15.69
2018-09-29T11:02:01.656Z,15.75
2018-09-29T11:03:01.705Z,15.81
2018-09-29T11:04:01.690Z,15.81
2018-09-29T11:05:02.382Z,15.81
2018-09-29T11:06:01.991Z,15.81
2018-09-29T11:07:01.626Z,15.88
2018-09-29T11:08:01.698Z,15.81
2018-09-29T11:09:01.598Z,15.88
2018-09-29T11:10:01.720Z,15.88
2018-09-29T11:11:02.235Z,15.94
2018-09-29T11:12:01.598Z,15.88
2018-09-29T11:13:01.596Z,15.88
2018-09-29T11:14:01.583Z,15.88
2018-09-29T11:15:01.593Z,15.94
2018-09-29T11:16:01.712Z,16
2018-09-29T11:17:01.593Z,15.94
2018-09-29T11:18:01.603Z,15.88
2018-09-29T11:19:01.598Z,15.88
2018-09-29T11:20:01.656Z,15.88
2018-09-29T11:21:02.461Z,15.88
2018-09-29T11:22:01.612Z,15.81
2018-09-29T11:23:01.541Z,15.88
2018-09-29T11:24:01.830Z,15.88
2018-09-29T11:25:01.604Z,15.88
2018-09-29T11:26:01.613Z,15.94
2018-09-29T11:27:01.634Z,15.94
2018-09-29T11:28:01.970Z,15.94
2018-09-29T11:29:01.672Z,16.06
2018-09-29T11:30:01.817Z,16
2018-09-29T11:31:01.838Z,16.06
2018-09-29T11:32:01.570Z,16.12
2018-09-29T11:33:01.680Z,16.12
2018-09-29T11:34:01.534Z,16.12
2018-09-29T11:35:01.761Z,16.19
2018-09-29T11:36:01.705Z,16.25
2018-09-29T11:37:01.646Z,16.37
2018-09-29T11:38:02.143Z,16.37
2018-09-29T11:39:01.690Z,16.5
2018-09-29T11:40:01.596Z,16.56
2018-09-29T11:41:01.827Z,16.56
2018-09-29T11:42:01.707Z,16.56
2018-09-29T11:43:01.895Z,16.5
2018-09-29T11:44:01.646Z,16.44
2018-09-29T11:45:01.614Z,16.5
2018-09-29T11:46:01.734Z,16.5
2018-09-29T11:47:02.519Z,16.5
2018-09-29T11:48:01.570Z,16.5
2018-09-29T11:49:01.681Z,16.62
2018-09-29T11:50:01.693Z,16.62
2018-09-29T11:51:01.584Z,16.69
2018-09-29T11:52:01.776Z,16.69
2018-09-29T11:53:01.910Z,16.69
2018-09-29T11:54:01.646Z,16.69
2018-09-29T11:55:01.876Z,16.69
2018-09-29T11:56:02.227Z,16.75
2018-09-29T11:57:01.583Z,16.69
2018-09-29T11:58:01.578Z,16.62
2018-09-29T11:59:01.569Z,16.69
2018-09-29T12:00:01.527Z,16.62
2018-09-29T12:01:01.656Z,16.5
2018-09-29T12:02:01.985Z,16.5
2018-09-29T12:03:01.655Z,16.44
2018-09-29T12:04:01.680Z,16.44
2018-09-29T12:05:01.717Z,16.44
2018-09-29T12:06:03.273Z,16.5
2018-09-29T12:07:01.964Z,16.44
2018-09-29T12:08:02.443Z,16.5
2018-09-29T12:09:01.539Z,16.5
2018-09-29T12:10:01.984Z,16.5
2018-09-29T12:11:01.508Z,16.62
2018-09-29T12:12:01.577Z,16.56
2018-09-29T12:13:01.545Z,16.69
2018-09-29T12:14:02.161Z,16.62
2018-09-29T12:15:01.507Z,16.69
2018-09-29T12:16:01.458Z,16.69
2018-09-29T12:17:02.627Z,16.75
2018-09-29T12:18:01.579Z,16.81
2018-09-29T12:19:01.629Z,16.81
2018-09-29T12:20:01.687Z,16.75
2018-09-29T12:21:01.997Z,16.69
2018-09-29T12:22:01.540Z,16.69
2018-09-29T12:23:02.642Z,16.75
2018-09-29T12:24:01.692Z,16.81
2018-09-29T12:25:02.504Z,16.87
2018-09-29T12:26:01.712Z,16.87
2018-09-29T12:27:01.712Z,16.87
2018-09-29T12:28:02.030Z,16.69
2018-09-29T12:29:01.820Z,16.69
2018-09-29T12:30:01.575Z,16.69
2018-09-29T12:31:01.827Z,16.75
2018-09-29T12:32:01.956Z,16.75
2018-09-29T12:33:04.091Z,16.81
2018-09-29T12:34:01.533Z,16.87
2018-09-29T12:35:01.663Z,16.87
2018-09-29T12:36:01.655Z,16.87
2018-09-29T12:37:56.739Z,16.94
2018-09-29T12:38:57.087Z,16.94
2018-09-29T12:39:58.137Z,16.94
2018-09-29T12:40:57.125Z,16.87
2018-09-29T12:41:57.096Z,16.87
2018-09-29T12:42:58.144Z,16.94
2018-09-29T12:43:57.919Z,16.87
2018-09-29T12:44:58.200Z,16.87
2018-09-29T12:45:57.117Z,16.87
2018-09-29T12:46:57.133Z,16.94
2018-09-29T12:47:57.047Z,16.94
2018-09-29T12:48:56.902Z,16.94
2018-09-29T12:49:57.062Z,17
2018-09-29T12:50:57.065Z,17.06
2018-09-29T12:51:57.603Z,17
2018-09-29T12:52:57.320Z,17
2018-09-29T12:53:57.283Z,17
2018-09-29T12:54:56.972Z,17.06
2018-09-29T12:55:57.101Z,17.06
2018-09-29T12:56:57.190Z,17.06
2018-09-29T12:57:57.240Z,17.06
2018-09-29T12:58:57.920Z,17.12